Time;durP1;ratioP1;P1;durP2;ratioP2;P2;SDS_P1;SDS_P2;PMS_P1;PMS_P2;Temp;Humidity;BMP_temperature;BMP_pressure;BME280_temperature;BME280_humidity;BME280_pressure;Samples;Min_cycle;Max_cycle;Signal;HPM_P1;HPM_P2
2023/09/02 00:00:55;;;;;;;4.30;4.00;;;;;;;16.10;100.00;99507.59;5026825;28;20229;-79
2023/09/02 00:03:23;;;;;;;4.20;3.80;;;;;;;16.07;100.00;99501.91;5029717;28;20218;-80
2023/09/02 00:05:50;;;;;;;4.17;3.87;;;;;;;16.09;100.00;99505.19;5020031;28;20676;-79
2023/09/02 00:08:18;;;;;;;4.53;4.13;;;;;;;16.11;100.00;99503.00;5026839;28;20205;-79
2023/09/02 00:10:46;;;;;;;4.20;3.90;;;;;;;16.13;100.00;99498.19;5020863;28;20254;-79
2023/09/02 00:13:15;;;;;;;4.23;3.93;;;;;;;16.13;100.00;99503.59;4986133;28;20273;-79
2023/09/02 00:15:43;;;;;;;4.23;3.93;;;;;;;16.11;100.00;99506.53;5027021;28;20257;-79
2023/09/02 00:18:11;;;;;;;4.60;3.97;;;;;;;16.11;100.00;99509.22;5020667;28;20198;-79
2023/09/02 00:20:40;;;;;;;4.00;3.70;;;;;;;16.11;100.00;99503.00;5027833;28;20207;-79
2023/09/02 00:23:07;;;;;;;3.87;3.57;;;;;;;16.13;100.00;99501.69;5023715;28;20719;-79
2023/09/02 00:25:34;;;;;;;3.70;3.43;;;;;;;16.13;100.00;99506.28;5031900;28;20197;-79
2023/09/02 00:28:02;;;;;;;4.03;3.63;;;;;;;16.14;100.00;99505.22;5024075;28;20660;-79
2023/09/02 00:30:30;;;;;;;4.03;3.73;;;;;;;16.10;100.00;99504.06;5033620;28;20194;-79
2023/09/02 00:32:58;;;;;;;4.00;3.70;;;;;;;16.09;100.00;99502.47;5025977;28;20198;-79
2023/09/02 00:35:26;;;;;;;3.77;3.47;;;;;;;16.08;100.00;99498.13;5011373;28;20244;-78
2023/09/02 00:37:56;;;;;;;4.00;3.70;;;;;;;16.06;100.00;99503.78;5030036;28;20210;-79
2023/09/02 00:40:25;;;;;;;3.93;3.63;;;;;;;16.05;100.00;99502.16;5030706;28;20283;-80
2023/09/02 00:42:54;;;;;;;4.00;3.70;;;;;;;15.99;100.00;99502.38;4995185;28;20563;-79
2023/09/02 00:45:24;;;;;;;4.50;3.50;;;;;;;15.96;100.00;99508.31;5005624;28;20222;-79
2023/09/02 00:47:53;;;;;;;3.83;3.60;;;;;;;15.92;100.00;99494.47;5022391;28;20285;-79
2023/09/02 00:50:21;;;;;;;3.77;3.47;;;;;;;15.88;100.00;99497.97;5022807;28;20191;-78
2023/09/02 00:52:51;;;;;;;3.70;3.50;;;;;;;15.84;100.00;99506.59;5026960;28;20206;-79
2023/09/02 00:55:20;;;;;;;3.70;3.50;;;;;;;15.81;100.00;99509.81;5025623;28;20194;-79
2023/09/02 00:57:47;;;;;;;3.90;3.60;;;;;;;15.78;100.00;99504.91;5021839;28;20664;-78
2023/09/02 01:00:16;;;;;;;4.00;3.70;;;;;;;15.75;100.00;99512.72;5007161;28;20233;-79
2023/09/02 01:02:45;;;;;;;4.30;4.00;;;;;;;15.71;100.00;99508.91;4990552;28;20933;-77
2023/09/02 01:05:13;;;;;;;4.13;3.83;;;;;;;15.68;100.00;99512.09;5008124;28;20237;-78
2023/09/02 01:07:43;;;;;;;3.80;3.50;;;;;;;15.64;100.00;99513.66;5002299;28;20248;-78
2023/09/02 01:10:11;;;;;;;3.90;3.60;;;;;;;15.64;100.00;99517.19;5027416;28;20317;-78
2023/09/02 01:12:38;;;;;;;3.63;3.43;;;;;;;15.62;100.00;99511.25;5006430;28;20684;-78
2023/09/02 01:15:06;;;;;;;4.70;4.30;;;;;;;15.59;100.00;99513.63;5019659;28;20764;-80
2023/09/02 01:17:34;;;;;;;4.47;4.07;;;;;;;15.52;100.00;99515.72;5022734;28;20190;-79
2023/09/02 01:20:04;;;;;;;4.37;4.07;;;;;;;15.48;100.00;99515.38;5020024;28;20205;-79
2023/09/02 01:22:50;;;;;;;4.10;3.80;;;;;;;15.46;100.00;99519.41;4983961;28;20234;-79
2023/09/02 01:25:47;;;;;;;4.20;3.90;;;;;;;15.41;100.00;99517.44;5027052;28;20669;-79
2023/09/02 01:28:17;;;;;;;4.70;4.30;;;;;;;15.36;100.00;99514.69;5020472;28;20656;-79
2023/09/02 01:30:47;;;;;;;4.43;3.90;;;;;;;15.35;100.00;99518.50;5000136;28;20278;-79
2023/09/02 01:33:16;;;;;;;4.07;3.77;;;;;;;15.36;100.00;99529.00;5000207;28;20194;-79
2023/09/02 01:35:47;;;;;;;4.20;3.87;;;;;;;15.33;100.00;99531.41;4994175;28;20571;-79
2023/09/02 01:38:17;;;;;;;4.30;3.90;;;;;;;15.30;100.00;99526.53;5019342;28;20191;-79
2023/09/02 01:40:46;;;;;;;4.17;3.87;;;;;;;15.27;100.00;99530.53;5030760;28;20248;-80
2023/09/02 01:43:17;;;;;;;4.33;4.03;;;;;;;15.22;100.00;99535.88;5010833;28;20208;-79
2023/09/02 01:45:45;;;;;;;4.53;4.23;;;;;;;15.15;100.00;99537.13;5005423;28;20191;-79
2023/09/02 01:48:15;;;;;;;4.20;3.90;;;;;;;15.10;100.00;99539.78;5005115;28;20700;-80
2023/09/02 01:50:46;;;;;;;5.50;4.23;;;;;;;15.07;100.00;99541.06;5014101;28;20226;-79
2023/09/02 01:53:14;;;;;;;4.40;4.00;;;;;;;15.05;100.00;99547.78;5015915;28;20190;-79
2023/09/02 01:55:44;;;;;;;4.43;4.13;;;;;;;15.00;100.00;99543.16;5015880;28;20285;-78
2023/09/02 01:58:15;;;;;;;4.30;4.00;;;;;;;14.99;100.00;99544.22;4991029;28;20235;-78
2023/09/02 02:00:42;;;;;;;3.87;3.67;;;;;;;14.96;100.00;99547.41;4986638;28;20191;-79
2023/09/02 02:03:16;;;;;;;3.90;3.60;;;;;;;14.94;100.00;99547.66;4980736;28;20209;-78
2023/09/02 02:05:51;;;;;;;4.00;3.70;;;;;;;14.91;100.00;99540.06;5010474;28;20206;-78
2023/09/02 02:08:51;;;;;;;4.40;4.10;;;;;;;14.89;100.00;99544.91;5013073;28;20198;-79
2023/09/02 02:11:20;;;;;;;4.57;4.17;;;;;;;14.78;100.00;99539.63;4997487;28;20280;-78
2023/09/02 02:13:49;;;;;;;4.83;4.40;;;;;;;14.73;100.00;99534.97;5009588;28;20673;-82
2023/09/02 02:16:17;;;;;;;4.70;4.30;;;;;;;14.66;100.00;99542.41;5026337;28;20248;-78
2023/09/02 02:18:44;;;;;;;4.30;4.00;;;;;;;14.61;100.00;99547.72;5029065;28;20194;-79
2023/09/02 02:21:11;;;;;;;4.63;4.23;;;;;;;14.60;100.00;99548.00;5029997;28;20703;-79
2023/09/02 02:23:38;;;;;;;6.00;4.27;;;;;;;14.57;100.00;99559.25;5000480;28;20685;-78
2023/09/02 02:26:06;;;;;;;4.00;3.70;;;;;;;14.53;100.00;99551.69;5012713;28;20195;-79
2023/09/02 02:28:36;;;;;;;4.37;3.97;;;;;;;14.50;100.00;99554.88;5024481;28;20735;-78
2023/09/02 02:31:04;;;;;;;4.03;3.70;;;;;;;14.49;100.00;99544.31;5016123;28;20666;-79
2023/09/02 02:33:32;;;;;;;4.07;3.77;;;;;;;14.47;100.00;99543.75;5031376;28;20202;-79
2023/09/02 02:36:00;;;;;;;4.30;4.00;;;;;;;14.45;100.00;99548.59;5009972;28;20199;-79
2023/09/02 02:38:28;;;;;;;4.30;3.90;;;;;;;14.44;100.00;99552.34;5015785;28;20657;-79
2023/09/02 02:40:56;;;;;;;4.07;3.77;;;;;;;14.43;100.00;99546.13;5020104;28;20544;-79
2023/09/02 02:43:26;;;;;;;4.37;4.07;;;;;;;14.41;100.00;99553.66;4985165;28;20207;-79
2023/09/02 02:45:53;;;;;;;4.30;4.00;;;;;;;14.38;100.00;99548.75;5021246;28;20201;-79
2023/09/02 02:48:30;;;;;;;4.23;3.93;;;;;;;14.34;100.00;99557.53;5006319;28;20237;-80
2023/09/02 02:50:59;;;;;;;4.20;3.90;;;;;;;14.33;100.00;99558.59;5011562;28;20190;-79
2023/09/02 02:53:28;;;;;;;4.00;3.70;;;;;;;14.28;100.00;99550.41;5004567;28;20281;-79
2023/09/02 02:56:03;;;;;;;3.43;3.23;;;;;;;14.26;100.00;99560.66;5010826;28;20722;-79
2023/09/02 02:58:32;;;;;;;4.60;4.20;;;;;;;14.22;100.00;99552.25;5022122;28;20277;-79
2023/09/02 03:01:06;;;;;;;4.03;3.73;;;;;;;14.22;100.00;99556.81;5011619;28;20207;-79
2023/09/02 03:03:36;;;;;;;3.97;3.57;;;;;;;14.19;100.00;99559.97;5005385;28;20280;-81
2023/09/02 03:06:04;;;;;;;3.87;3.67;;;;;;;14.17;100.00;99564.81;4984913;28;20210;-80
2023/09/02 03:08:34;;;;;;;4.30;3.90;;;;;;;14.17;100.00;99567.50;5022020;28;20202;-80
2023/09/02 03:11:05;;;;;;;3.90;3.60;;;;;;;14.16;100.00;99574.75;5003568;28;20584;-79
2023/09/02 03:13:34;;;;;;;4.10;3.70;;;;;;;14.16;100.00;99571.25;4988051;28;20570;-79
2023/09/02 03:16:13;;;;;;;4.30;3.93;;;;;;;14.16;100.00;99574.75;5015365;28;20230;-79
2023/09/02 03:18:41;;;;;;;4.00;3.70;;;;;;;14.15;100.00;99573.13;5015110;28;20676;-79
2023/09/02 03:21:10;;;;;;;3.87;3.57;;;;;;;14.16;100.00;99582.84;5006509;28;20202;-78
2023/09/02 03:23:38;;;;;;;3.80;3.50;;;;;;;14.16;100.00;99582.03;5001112;28;20210;-79
2023/09/02 03:26:11;;;;;;;4.20;3.80;;;;;;;14.16;100.00;99582.03;5016600;28;20241;-79
2023/09/02 03:28:42;;;;;;;4.33;3.57;;;;;;;14.15;100.00;99588.47;5009707;28;20217;-79
2023/09/02 03:31:11;;;;;;;3.90;3.60;;;;;;;14.18;100.00;99590.69;5014491;28;20210;-78
2023/09/02 03:33:41;;;;;;;3.83;3.57;;;;;;;14.18;100.00;99590.69;5010105;28;20233;-79
2023/09/02 03:36:20;;;;;;;3.70;3.37;;;;;;;14.17;100.00;99594.44;4999652;28;20269;-79
2023/09/02 03:38:49;;;;;;;3.70;3.30;;;;;;;14.17;100.00;99597.13;5007018;28;20206;-79
2023/09/02 03:41:19;;;;;;;3.90;3.60;;;;;;;14.15;100.00;99599.25;5005463;28;20287;-79
2023/09/02 03:43:46;;;;;;;3.83;3.53;;;;;;;14.11;100.00;99588.97;5020531;28;20218;-79
2023/09/02 03:46:17;;;;;;;3.70;3.50;;;;;;;14.09;100.00;99601.06;5008301;28;20203;-79
2023/09/02 03:48:49;;;;;;;4.00;3.70;;;;;;;14.06;100.00;99599.66;5014268;28;20582;-79
2023/09/02 03:51:18;;;;;;;3.50;3.30;;;;;;;14.03;100.00;99612.78;5011149;28;20229;-78
2023/09/02 03:54:11;;;;;;;3.67;3.37;;;;;;;14.02;100.00;99611.97;5018458;28;20189;-79
2023/09/02 03:56:42;;;;;;;3.80;3.50;;;;;;;13.99;100.00;99612.47;5001940;28;20275;-79
2023/09/02 03:59:10;;;;;;;3.90;3.60;;;;;;;14.00;100.00;99607.88;5026121;28;20223;-79
2023/09/02 04:01:38;;;;;;;3.83;3.53;;;;;;;13.97;100.00;99606.50;5003920;28;20661;-79
2023/09/02 04:04:06;;;;;;;3.80;3.50;;;;;;;13.97;100.00;99608.38;5004746;28;20230;-79
2023/09/02 04:06:34;;;;;;;3.90;3.60;;;;;;;13.95;100.00;99610.50;5032397;28;20194;-79
2023/09/02 04:09:01;;;;;;;3.93;3.63;;;;;;;13.93;100.00;99612.59;5027093;28;20194;-79
2023/09/02 04:11:28;;;;;;;4.23;3.80;;;;;;;13.89;100.00;99600.69;5023517;28;20233;-79
2023/09/02 04:13:56;;;;;;;3.97;3.50;;;;;;;13.88;100.00;99605.25;4999010;28;20191;-79
2023/09/02 04:16:25;;;;;;;3.50;3.30;;;;;;;13.88;100.00;99607.94;5002760;28;20740;-78
2023/09/02 04:18:52;;;;;;;3.87;3.57;;;;;;;13.87;100.00;99605.47;5018111;28;20266;-79
2023/09/02 04:21:19;;;;;;;3.80;3.50;;;;;;;13.86;100.00;99603.84;5010569;28;20206;-79
2023/09/02 04:23:47;;;;;;;3.80;3.50;;;;;;;13.88;100.00;99610.63;5001055;28;20230;-78
2023/09/02 04:26:19;;;;;;;3.83;3.53;;;;;;;13.88;100.00;99607.13;5016862;28;20202;-79
2023/09/02 04:28:48;;;;;;;3.83;3.60;;;;;;;13.88;100.00;99610.63;5030721;28;20181;-79
2023/09/02 04:31:21;;;;;;;4.00;3.63;;;;;;;13.90;100.00;99613.09;5010866;28;20249;-79
2023/09/02 04:33:50;;;;;;;3.63;3.40;;;;;;;13.93;100.00;99620.69;5011365;28;20233;-80
2023/09/02 04:36:19;;;;;;;4.00;3.70;;;;;;;13.95;100.00;99622.06;4998428;28;20291;-79
2023/09/02 04:38:47;;;;;;;3.97;3.67;;;;;;;13.96;100.00;99620.19;5007353;28;20201;-80
2023/09/02 04:41:16;;;;;;;4.40;4.00;;;;;;;14.01;100.00;99621.09;5009755;28;20199;-79
2023/09/02 04:43:46;;;;;;;3.90;3.60;;;;;;;14.08;100.00;99634.44;5035271;28;20197;-78
2023/09/02 04:46:14;;;;;;;3.90;3.60;;;;;;;14.15;100.00;99628.88;5009205;28;20199;-79
2023/09/02 04:48:46;;;;;;;4.07;3.77;;;;;;;14.23;100.00;99625.81;5025362;28;20197;-79
2023/09/02 04:51:18;;;;;;;4.33;4.03;;;;;;;14.30;100.00;99616.50;5027729;28;20198;-79
2023/09/02 04:53:45;;;;;;;4.43;4.13;;;;;;;14.38;100.00;99621.50;5003148;28;20228;-79
2023/09/02 04:56:12;;;;;;;4.00;3.70;;;;;;;14.49;100.00;99623.31;5002465;28;20206;-80
2023/09/02 04:58:41;;;;;;;4.17;3.87;;;;;;;14.60;100.00;99621.63;5006076;28;20199;-80
2023/09/02 05:01:13;;;;;;;4.20;3.77;;;;;;;14.72;100.00;99625.03;4994948;28;20209;-80
2023/09/02 05:03:54;;;;;;;3.90;3.60;;;;;;;14.82;100.00;99625.19;5010289;28;20214;-79
2023/09/02 05:06:23;;;;;;;3.93;3.60;;;;;;;14.94;100.00;99625.88;5002554;28;20648;-80
2023/09/02 05:08:54;;;;;;;4.50;4.10;;;;;;;15.09;100.00;99627.16;4996725;28;20314;-80
2023/09/02 05:11:26;;;;;;;3.77;3.50;;;;;;;15.21;100.00;99617.88;5004969;28;20218;-80
2023/09/02 05:13:54;;;;;;;4.43;4.03;;;;;;;15.34;100.00;99624.81;5023819;28;20230;-80
2023/09/02 05:16:23;;;;;;;4.53;4.20;;;;;;;15.46;100.00;99632.78;5026119;28;20230;-83
2023/09/02 05:18:53;;;;;;;4.10;3.80;;;;;;;15.59;100.00;99635.13;5024319;28;20673;-80
2023/09/02 05:21:20;;;;;;;4.43;4.13;;;;;;;15.73;100.00;99634.50;4994856;28;20231;-80
2023/09/02 05:23:48;;;;;;;4.30;4.00;;;;;;;15.90;100.00;99639.84;5004199;28;20199;-80
2023/09/02 05:26:15;;;;;;;4.17;3.90;;;;;;;16.04;100.00;99635.66;5006090;28;20203;-80
2023/09/02 05:28:43;;;;;;;4.07;3.77;;;;;;;16.23;100.00;99638.81;5019656;28;20677;-80
2023/09/02 05:31:10;;;;;;;4.10;3.73;;;;;;;16.41;100.00;99645.72;5002752;28;20206;-80
2023/09/02 05:33:37;;;;;;;4.03;3.70;;;;;;;16.54;100.00;99643.41;5033232;28;20257;-81
2023/09/02 05:36:05;;;;;;;3.67;3.37;;;;;;;16.70;100.00;99637.06;5025495;28;20206;-80
2023/09/02 05:38:33;;;;;;;3.60;3.30;;;;;;;16.88;100.00;99641.28;5025634;28;20246;-81
2023/09/02 05:41:00;;;;;;;3.30;3.00;;;;;;;17.04;100.00;99640.28;5022685;28;20218;-80
2023/09/02 05:43:29;;;;;;;4.10;3.47;;;;;;;17.20;100.00;99651.22;5025903;28;20198;-80
2023/09/02 05:46:01;;;;;;;3.43;3.13;;;;;;;17.35;100.00;99645.88;5021917;28;20194;-82
2023/09/02 05:48:29;;;;;;;2.97;2.77;;;;;;;17.49;100.00;99647.84;5025781;28;20191;-81
2023/09/02 05:50:57;;;;;;;3.43;3.13;;;;;;;17.62;100.00;99657.41;5024368;28;20198;-80
2023/09/02 05:53:25;;;;;;;3.40;3.10;;;;;;;17.77;100.00;99653.94;5022910;28;20780;-84
2023/09/02 05:55:54;;;;;;;4.20;3.07;;;;;;;17.88;100.00;99644.75;5020882;28;20195;-80
2023/09/02 05:58:23;;;;;;;4.13;3.10;;;;;;;18.00;100.00;99648.88;5023991;28;20198;-80
2023/09/02 06:00:50;;;;;;;3.50;3.10;;;;;;;18.14;100.00;99651.06;5017977;28;20270;-79
2023/09/02 06:03:20;;;;;;;2.90;2.70;;;;;;;18.27;100.00;99653.25;5020309;28;20200;-81
2023/09/02 06:05:51;;;;;;;3.67;2.90;;;;;;;18.38;100.00;99655.69;5008795;28;20589;-81
2023/09/02 06:08:20;;;;;;;2.97;2.60;;;;;;;18.47;100.00;99658.72;5033264;28;20204;-80
2023/09/02 06:10:59;;;;;;;3.03;2.83;;;;;;;18.63;100.00;99659.53;5028234;28;20235;-80
2023/09/02 06:13:27;;;;;;;3.27;2.93;;;;;;;18.73;100.00;99668.50;5021230;28;20229;-81
2023/09/02 06:16:04;;;;;;;3.90;2.90;;;;;;;18.84;100.00;99670.13;5021198;28;20262;-81
2023/09/02 06:18:33;;;;;;;3.27;2.97;;;;;;;18.99;100.00;99663.84;5022166;28;20673;-79
2023/09/02 06:21:11;;;;;;;3.33;2.93;;;;;;;19.13;100.00;99667.63;5020682;28;20198;-79
2023/09/02 06:23:43;;;;;;;3.07;2.60;;;;;;;19.26;100.00;99663.56;5005530;28;20226;-79
2023/09/02 06:26:12;;;;;;;3.77;2.87;;;;;;;19.34;100.00;99669.22;5018675;28;20272;-79
2023/09/02 06:28:40;;;;;;;3.03;2.77;;;;;;;19.44;100.00;99676.56;5021650;28;20193;-79
2023/09/02 06:31:08;;;;;;;2.73;2.53;;;;;;;19.58;100.00;99669.47;5020189;28;20203;-79
2023/09/02 06:33:36;;;;;;;2.93;2.73;;;;;;;19.70;100.00;99663.69;5023361;28;20288;-79
2023/09/02 06:36:11;;;;;;;2.90;2.70;;;;;;;19.83;100.00;99665.81;5020548;28;20202;-80
2023/09/02 06:38:39;;;;;;;3.37;2.70;;;;;;;19.95;100.00;99665.50;5020465;28;20192;-79
2023/09/02 06:41:10;;;;;;;2.77;2.57;;;;;;;20.06;100.00;99665.13;5026317;28;20464;-79
2023/09/02 06:43:41;;;;;;;3.23;2.73;;;;;;;20.18;100.00;99672.97;5007828;28;20679;-79
2023/09/02 06:46:18;;;;;;;3.00;2.67;;;;;;;20.32;100.00;99667.75;5020867;28;20204;-79
2023/09/02 06:48:46;;;;;;;4.63;2.73;;;;;;;20.43;100.00;99670.13;5025379;28;20193;-80
2023/09/02 06:51:14;;;;;;;3.30;2.40;;;;;;;20.54;100.00;99671.66;5024221;28;20188;-79
2023/09/02 06:53:42;;;;;;;2.77;2.57;;;;;;;20.66;100.00;99668.59;5024809;28;20226;-79
2023/09/02 06:56:14;;;;;;;2.43;2.27;;;;;;;20.75;100.00;99671.50;5028961;28;20199;-79
2023/09/02 06:58:43;;;;;;;2.40;2.20;;;;;;;20.84;100.00;99670.63;5029815;28;20217;-79
2023/09/02 07:01:26;;;;;;;2.50;2.30;;;;;;;20.96;100.00;99667.50;5000574;28;20201;-79
2023/09/02 07:03:55;;;;;;;2.97;2.60;;;;;;;21.01;100.00;99673.72;5028021;28;20573;-79
2023/09/02 07:06:23;;;;;;;2.47;2.28;;;;;;;21.15;100.00;99673.06;5020670;28;20563;-81
2023/09/02 07:08:51;;;;;;;3.60;2.30;;;;;;;21.27;100.00;99668.88;5011520;28;20652;-79
2023/09/02 07:11:18;;;;;;;2.70;2.05;;;;;;;21.40;100.00;99673.63;5020596;28;20287;-79
2023/09/02 07:13:46;;;;;;;3.10;2.53;;;;;;;21.55;100.00;99671.84;5023614;28;20211;-79
2023/09/02 07:16:15;;;;;;;3.58;2.20;;;;;;;21.67;100.00;99670.31;5020013;28;20669;-79
2023/09/02 07:18:44;;;;;;;2.10;2.00;;;;;;;21.74;100.00;99676.22;5022748;28;20179;-79
2023/09/02 07:21:11;;;;;;;2.42;2.22;;;;;;;21.86;100.00;99670.34;5022575;28;20311;-78
2023/09/02 07:23:39;;;;;;;3.08;2.28;;;;;;;21.95;100.00;99669.44;5021833;28;20198;-78
2023/09/02 07:26:07;;;;;;;2.20;2.05;;;;;;;22.10;100.00;99675.78;5005927;28;20574;-77
2023/09/02 07:28:36;;;;;;;2.95;2.38;;;;;;;22.18;100.00;99681.41;5027725;28;20215;-78
2023/09/02 07:31:06;;;;;;;2.30;2.13;;;;;;;22.22;100.00;99681.59;5020684;28;20199;-79
2023/09/02 07:33:34;;;;;;;2.10;2.00;;;;;;;22.32;100.00;99682.28;5021501;28;20218;-79
2023/09/02 07:36:11;;;;;;;2.75;2.55;;;;;;;22.50;100.00;99682.56;5019854;28;20202;-78
2023/09/02 07:38:40;;;;;;;2.60;2.40;;;;;;;22.53;100.00;99685.53;5018767;28;20194;-78
2023/09/02 07:41:09;;;;;;;2.70;2.13;;;;;;;22.58;100.00;99684.63;5020912;28;20308;-78
2023/09/02 07:43:36;;;;;;;3.08;2.15;;;;;;;22.70;100.00;99687.75;5019547;28;20189;-78
2023/09/02 07:46:04;;;;;;;2.45;2.25;;;;;;;22.78;100.00;99681.59;5020597;28;20223;-79
2023/09/02 07:48:31;;;;;;;2.10;2.00;;;;;;;22.90;100.00;99689.34;5021470;28;20241;-78
2023/09/02 07:51:00;;;;;;;2.10;1.90;;;;;;;22.93;100.00;99689.53;5020841;28;20287;-80
2023/09/02 07:53:29;;;;;;;2.28;2.05;;;;;;;23.02;100.00;99686.94;5021817;28;20278;-78
2023/09/02 07:55:57;;;;;;;2.63;2.00;;;;;;;23.15;100.00;99686.94;5006127;28;20196;-78
2023/09/02 07:58:24;;;;;;;1.88;1.77;;;;;;;23.26;100.00;99682.94;5020057;28;20299;-78
2023/09/02 08:00:55;;;;;;;2.67;2.00;;;;;;;23.42;100.00;99683.47;5015622;28;20278;-79
2023/09/02 08:03:23;;;;;;;1.92;1.80;;;;;;;23.56;100.00;99683.50;5020287;28;20258;-78
2023/09/02 08:05:51;;;;;;;2.58;1.90;;;;;;;23.65;100.00;99687.97;5003565;28;20577;-79
2023/09/02 08:08:19;;;;;;;2.20;2.00;;;;;;;23.65;100.00;99690.69;5022283;28;20741;-78
2023/09/02 08:10:47;;;;;;;2.38;2.13;;;;;;;23.72;100.00;99692.19;5032053;28;20234;-78
2023/09/02 08:13:14;;;;;;;2.00;1.90;;;;;;;23.84;100.00;99689.78;5022941;28;20214;-79
2023/09/02 08:15:43;;;;;;;2.45;2.10;;;;;;;23.92;100.00;99689.88;5020787;28;20281;-78
2023/09/02 08:18:13;;;;;;;2.63;1.90;;;;;;;23.98;100.00;99685.09;5027163;28;20198;-79
2023/09/02 08:20:42;;;;;;;2.20;2.00;;;;;;;24.03;100.00;99696.72;5024795;28;20281;-78
2023/09/02 08:23:11;;;;;;;2.22;1.80;;;;;;;23.88;100.00;99699.81;5024964;28;20197;-79
2023/09/02 08:25:38;;;;;;;1.80;1.70;;;;;;;23.98;100.00;99693.31;5036057;28;20183;-78
2023/09/02 08:28:05;;;;;;;2.15;1.95;;;;;;;24.04;100.00;99692.88;5035908;28;20196;-78
2023/09/02 08:30:33;;;;;;;1.70;1.60;;;;;;;24.11;100.00;99689.72;5018163;28;20200;-79
2023/09/02 08:33:00;;;;;;;3.38;2.10;;;;;;;24.27;100.00;99693.75;5027528;28;20253;-78
2023/09/02 08:35:34;;;;;;;1.90;1.80;;;;;;;24.44;100.00;99696.69;5024082;28;20575;-78
2023/09/02 08:38:03;;;;;;;1.80;1.60;;;;;;;24.64;100.00;99694.56;5015083;28;20216;-78
2023/09/02 08:40:32;;;;;;;1.77;1.67;;;;;;;24.75;100.00;99691.28;5035601;28;20196;-79
2023/09/02 08:43:01;;;;;;;2.42;2.13;;;;;;;24.83;100.00;99692.44;5035652;28;20683;-78
2023/09/02 08:45:29;;;;;;;2.15;1.90;;;;;;;24.87;100.00;99693.50;5006515;28;20199;-78
2023/09/02 08:48:00;;;;;;;2.08;1.98;;;;;;;24.89;100.00;99697.53;5025524;28;20196;-78
2023/09/02 08:50:28;;;;;;;1.95;1.85;;;;;;;24.67;100.00;99696.69;5005894;28;20199;-78
2023/09/02 08:52:56;;;;;;;1.85;1.75;;;;;;;24.61;100.00;99697.91;5006174;28;20227;-78
2023/09/02 08:55:24;;;;;;;1.92;1.70;;;;;;;24.91;100.00;99705.44;5012801;28;20253;-78
2023/09/02 08:57:52;;;;;;;1.90;1.80;;;;;;;25.10;100.00;99700.56;5008492;28;20652;-78
2023/09/02 09:00:20;;;;;;;2.00;1.88;;;;;;;25.26;100.00;99700.97;5009469;28;20208;-79
2023/09/02 09:02:47;;;;;;;2.10;1.70;;;;;;;25.13;100.00;99704.59;5034113;28;20205;-78
2023/09/02 09:05:15;;;;;;;3.50;1.90;;;;;;;25.33;100.00;99707.63;5005146;28;20598;-78
2023/09/02 09:07:43;;;;;;;1.98;1.80;;;;;;;25.16;100.00;99704.78;5030052;28;21248;-78
2023/09/02 09:10:15;;;;;;;1.50;1.40;;;;;;;25.28;100.00;99707.78;4993422;28;20589;-79
2023/09/02 09:12:43;;;;;;;2.45;1.90;;;;;;;25.44;100.00;99703.47;5013766;28;20190;-78
2023/09/02 09:15:11;;;;;;;1.67;1.50;;;;;;;25.59;100.00;99698.72;5012414;28;20241;-80
2023/09/02 09:17:40;;;;;;;1.65;1.55;;;;;;;25.13;100.00;99699.13;5025367;28;20194;-79
2023/09/02 09:20:08;;;;;;;2.05;1.90;;;;;;;25.20;100.00;99704.94;5010442;28;20240;-78
2023/09/02 09:22:40;;;;;;;1.60;1.50;;;;;;;25.42;100.00;99705.75;5032006;28;20195;-78
2023/09/02 09:25:07;;;;;;;1.92;1.73;;;;;;;25.21;100.00;99706.56;5026573;28;20199;-78
2023/09/02 09:27:37;;;;;;;1.42;1.33;;;;;;;25.37;100.00;99692.16;5020916;28;20194;-79
2023/09/02 09:30:05;;;;;;;1.70;1.60;;;;;;;25.55;100.00;99690.34;5018420;28;20234;-78
2023/09/02 09:32:34;;;;;;;2.33;2.10;;;;;;;25.64;100.00;99691.16;5030355;28;20592;-79
2023/09/02 09:35:02;;;;;;;2.03;1.83;;;;;;;25.81;100.00;99699.44;5019886;28;20223;-78
2023/09/02 09:37:31;;;;;;;1.80;1.70;;;;;;;25.66;100.00;99694.38;5025452;28;20249;-78
2023/09/02 09:40:01;;;;;;;2.03;1.83;;;;;;;25.74;100.00;99698.31;5024030;28;20570;-79
2023/09/02 09:42:34;;;;;;;2.63;1.80;;;;;;;25.68;100.00;99703.13;5022013;28;20226;-79
2023/09/02 09:45:05;;;;;;;2.30;2.10;;;;;;;25.84;100.00;99700.75;5022976;28;20218;-77
2023/09/02 09:47:33;;;;;;;2.20;2.10;;;;;;;26.08;100.00;99703.88;5025220;28;20281;-77
2023/09/02 09:50:16;;;;;;;2.53;1.88;;;;;;;26.27;100.00;99698.91;5023600;28;20566;-79
2023/09/02 09:53:09;;;;;;;2.00;1.90;;;;;;;26.48;100.00;99693.63;5018876;28;20288;-77
2023/09/02 09:55:41;;;;;;;2.97;2.00;;;;;;;26.87;100.00;99698.16;5020490;28;20234;-78
2023/09/02 09:58:10;;;;;;;2.33;1.92;;;;;;;27.21;100.00;99697.25;5006363;28;20535;-80
2023/09/02 10:00:37;;;;;;;2.53;1.70;;;;;;;27.35;100.00;99692.34;5012841;28;20205;-82
2023/09/02 10:03:06;;;;;;;1.92;1.70;;;;;;;27.30;100.00;99686.22;5030410;28;20193;-80
2023/09/02 10:05:34;;;;;;;1.95;1.70;;;;;;;27.39;100.00;99689.78;5015929;28;20230;-81
2023/09/02 10:08:06;;;;;;;2.15;1.75;;;;;;;27.11;100.00;99686.59;5008215;28;20222;-78
2023/09/02 10:10:36;;;;;;;1.92;1.83;;;;;;;26.86;100.00;99680.03;5026071;28;20241;-80
2023/09/02 10:13:05;;;;;;;2.45;1.80;;;;;;;27.00;100.00;99686.16;5002134;28;20571;-80
2023/09/02 10:15:32;;;;;;;2.03;1.88;;;;;;;27.14;100.00;99685.97;5027359;28;20649;-80
2023/09/02 10:18:04;;;;;;;1.88;1.77;;;;;;;26.93;100.00;99691.34;5023961;28;20182;-78
2023/09/02 10:20:34;;;;;;;2.03;1.92;;;;;;;27.21;100.00;99686.25;5003104;28;20198;-78
2023/09/02 10:23:10;;;;;;;1.83;1.63;;;;;;;27.07;95.13;99680.94;5006295;28;20209;-78
2023/09/02 10:25:56;;;;;;;2.58;1.63;;;;;;;27.35;96.47;99686.84;5008562;28;20202;-78
2023/09/02 10:28:31;;;;;;;3.83;2.00;;;;;;;27.79;96.75;99682.81;5003237;28;20246;-79
2023/09/02 10:30:59;;;;;;;2.10;2.00;;;;;;;27.93;92.61;99683.38;5004343;28;20210;-79
2023/09/02 10:33:48;;;;;;;2.53;1.83;;;;;;;28.03;89.33;99688.50;5004108;28;20269;-78
2023/09/02 10:36:18;;;;;;;2.05;1.83;;;;;;;28.22;89.07;99679.00;5018943;28;20194;-79
2023/09/02 10:38:48;;;;;;;1.70;1.60;;;;;;;27.90;89.91;99683.25;5006776;28;20191;-81
2023/09/02 10:41:18;;;;;;;2.10;1.90;;;;;;;27.91;86.78;99682.09;5023623;28;20235;-78
2023/09/02 10:43:46;;;;;;;1.98;1.80;;;;;;;28.26;86.63;99691.78;5024164;28;20585;-78
2023/09/02 10:46:13;;;;;;;2.58;1.42;;;;;;;28.66;83.78;99681.06;5005887;28;20191;-78
2023/09/02 10:48:44;;;;;;;1.95;1.52;;;;;;;29.04;83.36;99682.84;5026633;28;20198;-79
2023/09/02 10:51:13;;;;;;;1.85;1.70;;;;;;;29.45;81.21;99682.72;5005361;28;20199;-80
2023/09/02 10:53:53;;;;;;;2.20;1.77;;;;;;;29.89;79.33;99680.22;5006870;28;20233;-82
2023/09/02 10:56:34;;;;;;;2.80;1.75;;;;;;;30.15;77.22;99677.88;5029130;28;20194;-81
2023/09/02 10:59:04;;;;;;;2.05;1.58;;;;;;;29.93;76.13;99678.38;5011845;28;20194;-77
2023/09/02 11:01:45;;;;;;;1.63;1.52;;;;;;;30.01;74.37;99677.44;5015073;28;20540;-79
2023/09/02 11:04:16;;;;;;;1.80;1.70;;;;;;;29.56;76.11;99683.06;5023322;28;20221;-78
2023/09/02 11:07:22;;;;;;;2.78;1.70;;;;;;;29.97;75.22;99679.28;5025802;28;20328;-78
2023/09/02 11:09:56;;;;;;;2.05;1.90;;;;;;;30.12;75.15;99678.59;4979999;28;20242;-79
2023/09/02 11:12:24;;;;;;;1.60;1.50;;;;;;;30.54;75.42;99676.31;5018760;28;20737;-78
2023/09/02 11:15:07;;;;;;;2.03;1.70;;;;;;;30.24;72.58;99680.50;5024966;28;20218;-81
2023/09/02 11:17:36;;;;;;;1.95;1.75;;;;;;;30.47;71.21;99676.91;5023816;28;20194;-78
2023/09/02 11:20:10;;;;;;;1.80;1.70;;;;;;;30.77;69.10;99688.44;5020965;28;20190;-79
2023/09/02 11:23:05;;;;;;;2.58;1.70;;;;;;;31.16;68.95;99674.91;5006096;28;20209;-81
2023/09/02 11:25:43;;;;;;;2.63;1.90;;;;;;;31.33;69.07;99693.91;5020551;28;20190;-79
2023/09/02 11:28:32;;;;;;;2.45;1.80;;;;;;;31.31;64.83;99685.97;5006101;28;20646;-81
2023/09/02 11:31:09;;;;;;;1.80;1.70;;;;;;;31.40;65.09;99692.13;5006479;28;20660;-80
2023/09/02 11:33:40;;;;;;;1.80;1.70;;;;;;;31.74;63.44;99693.41;4999995;28;20219;-78
2023/09/02 11:36:16;;;;;;;1.70;1.60;;;;;;;32.03;62.35;99686.56;5024456;28;20213;-78
2023/09/02 11:38:44;;;;;;;2.38;1.80;;;;;;;32.17;62.01;99688.88;5025345;28;20205;-79
2023/09/02 11:41:21;;;;;;;3.15;1.70;;;;;;;32.08;61.07;99691.84;5030535;28;20275;-79